Time;durP1;ratioP1;P1;durP2;ratioP2;P2;SDS_P1;SDS_P2;PMS_P1;PMS_P2;Temp;Humidity;BMP_temperature;BMP_pressure;BME280_temperature;BME280_humidity;BME280_pressure;Samples;Min_cycle;Max_cycle;Signal;HPM_P1;HPM_P2
2022/08/18 00:00:47;;;;;;;8.53;7.73;;;18.10;1.00;;;;;;8350186;28;20174;-68
2022/08/18 00:04:48;;;;;;;8.00;7.20;;;18.00;1.00;;;;;;8347510;28;20269;-68
2022/08/18 00:08:49;;;;;;;8.57;7.77;;;18.00;1.00;;;;;;8344134;28;20301;-68
2022/08/18 00:12:49;;;;;;;8.30;7.50;;;18.00;1.00;;;;;;8348022;28;20213;-69
2022/08/18 00:16:52;;;;;;;8.60;7.80;;;17.90;1.00;;;;;;8356873;28;20244;-68
2022/08/18 00:20:53;;;;;;;8.83;7.93;;;17.80;93.80;;;;;;8348810;28;20191;-68
2022/08/18 00:24:56;;;;;;;9.83;8.37;;;17.70;99.90;;;;;;8350421;28;20177;-68
2022/08/18 00:28:57;;;;;;;9.90;8.90;;;17.70;99.90;;;;;;8346416;28;20264;-68
2022/08/18 00:32:59;;;;;;;9.17;8.27;;;17.70;1.00;;;;;;8347753;28;20189;-70
2022/08/18 00:37:00;;;;;;;11.07;9.37;;;17.70;99.90;;;;;;8346382;28;20282;-68
2022/08/18 00:41:01;;;;;;;10.27;9.27;;;17.70;99.90;;;;;;8348933;28;20188;-68
2022/08/18 00:45:04;;;;;;;9.47;8.57;;;17.70;99.90;;;;;;8346832;28;20250;-68
2022/08/18 00:49:05;;;;;;;9.70;8.80;;;17.70;99.90;;;;;;8345801;28;20197;-68
2022/08/18 00:53:33;;;;;;;11.47;9.77;;;17.70;99.90;;;;;;8346383;28;20189;-68
2022/08/18 00:57:34;;;;;;;9.93;8.93;;;17.60;1.00;;;;;;8379443;28;20248;-68
2022/08/18 01:01:36;;;;;;;10.57;9.47;;;17.60;1.00;;;;;;8342675;28;20192;-68
2022/08/18 01:05:46;;;;;;;8.67;7.77;;;17.50;99.90;;;;;;8351660;28;20197;-69
2022/08/18 01:09:50;;;;;;;9.37;8.47;;;17.40;1.00;;;;;;8361407;28;20186;-69
2022/08/18 01:13:52;;;;;;;9.60;8.70;;;17.30;65.80;;;;;;8383339;28;20225;-69
2022/08/18 01:22:43;;;;;;;10.73;9.63;;;17.20;6.10;;;;;;8352795;28;20267;-70
2022/08/18 01:26:49;;;;;;;11.47;10.30;;;17.20;99.90;;;;;;8351751;28;20202;-68
2022/08/18 01:30:52;;;;;;;11.17;9.97;;;17.10;94.70;;;;;;8361721;28;20275;-68
2022/08/18 01:34:55;;;;;;;11.20;10.03;;;17.20;1.00;;;;;;8370006;28;20240;-68
2022/08/18 01:38:56;;;;;;;13.37;10.67;;;17.20;1.00;;;;;;8360161;28;20214;-69
2022/08/18 01:42:57;;;;;;;10.87;9.77;;;17.20;99.90;;;;;;8353552;28;20226;-68
2022/08/18 01:46:58;;;;;;;11.70;10.60;;;17.10;1.00;;;;;;8350260;28;20513;-69
2022/08/18 01:51:02;;;;;;;10.13;9.07;;;17.10;99.90;;;;;;8349971;28;20192;-68
2022/08/18 01:55:04;;;;;;;10.70;9.40;;;17.00;1.00;;;;;;8350131;28;20209;-68
2022/08/18 01:59:12;;;;;;;10.37;9.37;;;17.00;99.90;;;;;;8386249;28;20209;-69
2022/08/18 02:03:13;;;;;;;10.90;9.90;;;17.00;99.90;;;;;;8349802;28;20220;-69
2022/08/18 02:07:14;;;;;;;13.77;11.67;;;17.00;99.90;;;;;;8369082;28;20190;-69
2022/08/18 02:11:15;;;;;;;11.67;10.47;;;16.90;99.90;;;;;;8351722;28;20198;-69
2022/08/18 02:15:16;;;;;;;12.50;11.20;;;16.90;1.00;;;;;;8350891;28;20197;-69
2022/08/18 02:19:17;;;;;;;10.60;9.60;;;16.80;97.60;;;;;;8353139;28;20213;-68
2022/08/18 02:23:18;;;;;;;11.90;9.87;;;16.80;99.90;;;;;;8352525;28;20220;-69
2022/08/18 02:27:18;;;;;;;9.63;8.63;;;16.80;99.90;;;;;;8349728;28;20208;-69
2022/08/18 02:31:22;;;;;;;10.60;9.07;;;16.70;99.90;;;;;;8351575;28;20213;-68
2022/08/18 02:35:22;;;;;;;10.40;9.40;;;16.60;99.90;;;;;;8350976;28;20343;-69
2022/08/18 02:39:23;;;;;;;10.47;9.40;;;16.60;99.90;;;;;;8351285;28;20212;-68
2022/08/18 02:43:24;;;;;;;11.03;9.90;;;16.50;1.00;;;;;;8351250;28;20188;-69
2022/08/18 02:47:25;;;;;;;9.50;8.60;;;16.50;1.00;;;;;;8352588;28;20196;-69
2022/08/18 02:51:27;;;;;;;11.80;9.93;;;16.50;1.00;;;;;;8353930;28;20185;-69
2022/08/18 02:55:28;;;;;;;9.93;8.33;;;16.50;1.00;;;;;;8354283;28;20275;-69
2022/08/18 02:59:30;;;;;;;11.10;10.00;;;16.50;1.00;;;;;;8349533;28;20217;-69
2022/08/18 03:03:31;;;;;;;10.30;9.30;;;16.50;1.00;;;;;;8350402;28;20236;-68
2022/08/18 03:07:32;;;;;;;10.50;9.50;;;16.50;1.00;;;;;;8349973;28;20483;-69
2022/08/18 03:11:33;;;;;;;12.20;10.63;;;16.50;1.00;;;;;;8347460;28;20248;-68
2022/08/18 03:15:34;;;;;;;10.97;9.87;;;16.40;1.00;;;;;;8350051;28;20206;-69
2022/08/18 03:19:35;;;;;;;10.40;9.40;;;16.30;1.00;;;;;;8342812;28;20256;-68
2022/08/18 03:23:39;;;;;;;9.93;8.93;;;16.30;1.00;;;;;;8349323;28;20187;-69
2022/08/18 03:27:39;;;;;;;9.77;8.80;;;16.20;1.00;;;;;;8350507;28;20178;-68
2022/08/18 03:31:42;;;;;;;10.70;9.40;;;16.20;27.80;;;;;;8348413;28;20188;-68
2022/08/18 03:35:43;;;;;;;9.63;8.63;;;16.20;99.90;;;;;;8363887;28;20182;-69
2022/08/18 03:39:43;;;;;;;10.60;9.60;;;16.20;99.90;;;;;;8350572;28;20181;-69
2022/08/18 03:43:44;;;;;;;10.20;9.17;;;16.20;99.90;;;;;;8351396;28;20182;-69
2022/08/18 03:47:45;;;;;;;10.57;9.37;;;16.30;99.90;;;;;;8347695;28;20231;-68
2022/08/18 03:51:47;;;;;;;10.67;9.57;;;16.30;99.90;;;;;;8345065;28;20213;-69
2022/08/18 03:55:48;;;;;;;10.73;9.63;;;16.30;99.90;;;;;;8349080;28;20182;-69
2022/08/18 03:59:49;;;;;;;11.67;10.37;;;16.30;99.90;;;;;;8346638;28;20181;-68
2022/08/18 04:03:56;;;;;;;11.00;9.90;;;16.30;99.90;;;;;;8347971;28;20197;-68
2022/08/18 04:07:57;;;;;;;10.30;9.30;;;16.40;99.90;;;;;;8349086;28;20186;-67
2022/08/18 04:12:02;;;;;;;12.10;10.90;;;16.40;99.90;;;;;;8347962;28;20270;-68
2022/08/18 04:16:03;;;;;;;12.20;10.97;;;16.50;99.90;;;;;;8347346;28;20224;-68
2022/08/18 04:20:04;;;;;;;11.57;10.47;;;16.60;99.90;;;;;;8351981;28;20185;-68
2022/08/18 04:24:06;;;;;;;10.63;9.20;;;16.70;99.90;;;;;;8348027;28;20201;-68
2022/08/18 04:28:06;;;;;;;13.93;11.23;;;16.80;99.90;;;;;;8365728;28;20197;-68
2022/08/18 04:32:07;;;;;;;13.57;12.27;;;16.90;99.90;;;;;;8352542;28;20189;-67
2022/08/18 04:36:15;;;;;;;14.90;12.53;;;17.20;99.90;;;;;;8349544;28;20209;-67
2022/08/18 04:40:15;;;;;;;15.17;12.43;;;17.40;91.90;;;;;;8361733;28;20184;-68
2022/08/18 04:44:17;;;;;;;16.87;15.17;;;17.70;1.00;;;;;;8347826;28;20190;-67
2022/08/18 04:48:18;;;;;;;20.17;18.07;;;17.90;99.90;;;;;;8347380;28;20198;-68
2022/08/18 04:56:42;;;;;;;14.37;12.70;;;18.40;99.90;;;;;;8347318;28;20256;-68
2022/08/18 05:00:44;;;;;;;14.30;12.80;;;18.60;99.90;;;;;;8346359;28;20188;-68
2022/08/18 05:04:46;;;;;;;12.93;11.63;;;18.80;99.90;;;;;;8347412;28;20186;-68
2022/08/18 05:08:47;;;;;;;13.73;12.20;;;19.00;99.90;;;;;;8346251;28;20182;-68
2022/08/18 05:12:48;;;;;;;15.20;12.67;;;19.20;99.90;;;;;;8378117;28;20258;-68
2022/08/18 05:16:50;;;;;;;17.50;13.50;;;19.30;1.00;;;;;;8344808;28;20213;-68
2022/08/18 05:20:52;;;;;;;13.47;12.03;;;19.50;99.90;;;;;;8345327;28;20194;-68
2022/08/18 05:24:53;;;;;;;14.43;10.97;;;19.70;15.70;;;;;;8348224;28;20182;-68
2022/08/18 05:28:54;;;;;;;13.43;12.03;;;19.90;99.90;;;;;;8348852;28;20200;-68
2022/08/18 05:32:55;;;;;;;17.77;12.70;;;20.10;1.00;;;;;;8348876;28;20222;-68
2022/08/18 05:37:25;;;;;;;11.93;10.73;;;20.30;1.00;;;;;;8347125;28;20268;-68
2022/08/18 05:41:36;;;;;;;16.30;13.33;;;20.50;99.90;;;;;;8348440;28;20190;-69
2022/08/18 05:45:39;;;;;;;15.67;13.73;;;20.80;1.00;;;;;;8354894;28;20182;-66
2022/08/18 05:49:43;;;;;;;13.90;11.07;;;20.90;1.00;;;;;;8344949;28;20178;-67
2022/08/18 05:58:16;;;;;;;14.60;12.47;;;21.30;99.90;;;;;;8356291;28;20407;-67
2022/08/18 06:02:22;;;;;;;17.80;13.37;;;21.50;1.00;;;;;;8352956;28;20179;-66
2022/08/18 06:06:28;;;;;;;15.70;14.03;;;21.60;99.90;;;;;;8385996;28;20190;-66
2022/08/18 06:10:30;;;;;;;13.30;11.90;;;21.70;99.90;;;;;;8350119;28;20220;-67
2022/08/18 06:14:30;;;;;;;11.67;10.30;;;21.80;99.90;;;;;;8354865;28;20232;-66
2022/08/18 06:18:52;;;;;;;12.87;10.80;;;21.90;99.90;;;;;;8353826;28;20213;-67
2022/08/18 06:23:33;;;;;;;13.77;11.47;;;22.00;99.90;;;;;;8349924;28;20186;-67
2022/08/18 06:27:42;;;;;;;20.50;14.73;;;22.10;99.90;;;;;;8343806;28;20209;-67
2022/08/18 06:32:10;;;;;;;16.00;13.57;;;22.20;99.90;;;;;;8351633;28;20269;-68
2022/08/18 06:36:43;;;;;;;14.93;12.63;;;22.40;99.90;;;;;;8348630;28;20205;-68
2022/08/18 06:40:47;;;;;;;18.67;13.70;;;22.70;99.90;;;;;;8359034;28;20192;-68
2022/08/18 06:44:52;;;;;;;14.30;12.17;;;23.10;14.10;;;;;;8351870;28;20174;-68
2022/08/18 06:48:58;;;;;;;13.70;11.57;;;23.50;1.00;;;;;;8384570;28;20371;-69
2022/08/18 06:53:05;;;;;;;15.23;12.30;;;23.80;1.00;;;;;;8356967;28;20190;-68
2022/08/18 06:57:30;;;;;;;14.37;11.47;;;24.00;99.90;;;;;;8356936;28;20209;-67
2022/08/18 07:01:32;;;;;;;14.47;10.53;;;24.20;99.90;;;;;;8365556;28;20181;-68
2022/08/18 07:05:35;;;;;;;14.63;12.00;;;24.30;99.90;;;;;;8350524;28;20236;-68
2022/08/18 07:09:35;;;;;;;15.60;13.60;;;24.40;99.90;;;;;;8352228;28;20186;-69
2022/08/18 07:13:43;;;;;;;17.97;14.50;;;24.50;99.90;;;;;;8352256;28;20218;-67
2022/08/18 07:17:48;;;;;;;16.53;13.70;;;24.50;1.00;;;;;;8353256;28;20205;-68
2022/08/18 07:22:16;;;;;;;19.27;13.53;;;24.50;1.00;;;;;;8349408;28;20276;-66
2022/08/18 07:26:17;;;;;;;18.40;14.10;;;24.60;1.00;;;;;;8349808;28;20240;-67
2022/08/18 07:30:18;;;;;;;16.10;13.50;;;24.80;1.00;;;;;;8352475;28;20186;-67
2022/08/18 07:34:27;;;;;;;16.77;11.70;;;25.00;1.00;;;;;;8359253;28;20224;-66
2022/08/18 07:38:37;;;;;;;16.00;12.10;;;25.00;1.00;;;;;;8346607;28;20210;-67
2022/08/18 07:43:06;;;;;;;17.63;12.03;;;25.00;1.00;;;;;;8348680;28;20200;-66
2022/08/18 07:47:18;;;;;;;14.73;11.07;;;25.40;1.00;;;;;;8348673;28;20240;-67
2022/08/18 07:51:47;;;;;;;12.57;10.50;;;26.10;99.90;;;;;;8349163;28;20188;-66
2022/08/18 07:55:54;;;;;;;16.98;9.23;;;26.90;99.90;;;;;;8345862;28;20229;-64
2022/08/18 08:00:13;;;;;;;12.13;9.07;;;27.50;99.90;;;;;;8349045;28;20174;-66
2022/08/18 08:04:22;;;;;;;9.90;8.73;;;27.90;67.80;;;;;;8347533;28;20183;-66
2022/08/18 08:08:44;;;;;;;10.38;8.13;;;28.30;37.80;;;;;;8341457;28;20241;-65
2022/08/18 08:12:53;;;;;;;13.13;8.23;;;28.60;1.00;;;;;;8347724;28;20220;-65
2022/08/18 08:17:27;;;;;;;9.05;7.75;;;29.00;1.00;;;;;;8364439;28;20291;-67
2022/08/18 08:21:32;;;;;;;11.15;7.53;;;29.50;1.00;;;;;;8354566;28;20331;-65
2022/08/18 08:25:54;;;;;;;12.40;9.02;;;29.90;1.00;;;;;;8348100;28;20186;-65
2022/08/18 08:30:23;;;;;;;11.07;8.98;;;30.10;1.00;;;;;;8348183;28;20181;-67
2022/08/18 08:34:47;;;;;;;11.48;7.75;;;30.10;1.00;;;;;;8347765;28;20190;-66
2022/08/18 08:39:04;;;;;;;8.77;7.40;;;30.20;1.00;;;;;;8342050;28;20245;-66
2022/08/18 08:43:21;;;;;;;8.15;7.32;;;30.10;1.00;;;;;;8365870;28;20204;-66
2022/08/18 08:47:28;;;;;;;8.57;7.75;;;30.40;1.00;;;;;;8361901;28;20413;-67
2022/08/18 08:51:41;;;;;;;8.73;7.60;;;30.70;1.00;;;;;;8365658;28;20272;-69
2022/08/18 08:55:49;;;;;;;10.60;8.43;;;30.90;1.00;;;;;;8357810;28;20186;-67
2022/08/18 08:59:51;;;;;;;8.63;7.53;;;30.80;1.00;;;;;;8355377;28;20273;-66
2022/08/18 09:04:20;;;;;;;8.88;8.00;;;30.90;1.00;;;;;;8344532;28;20170;-66
2022/08/18 09:08:41;;;;;;;11.55;7.45;;;30.80;1.00;;;;;;8350796;28;20194;-65
2022/08/18 09:13:04;;;;;;;12.57;7.82;;;30.90;1.00;;;;;;8376427;28;20607;-65
2022/08/18 09:17:42;;;;;;;7.90;7.05;;;31.00;1.00;;;;;;8349480;28;20205;-65
2022/08/18 09:21:46;;;;;;;9.98;7.28;;;31.10;1.00;;;;;;8359592;28;20186;-64
2022/08/18 09:25:54;;;;;;;8.57;7.15;;;31.20;1.00;;;;;;8348177;28;20212;-65
2022/08/18 09:29:58;;;;;;;9.07;6.85;;;31.20;1.00;;;;;;8355231;28;20174;-65
2022/08/18 09:34:21;;;;;;;7.95;7.05;;;31.20;1.00;;;;;;8351596;28;20182;-66
2022/08/18 09:43:04;;;;;;;7.25;6.55;;;31.20;1.00;;;;;;8348369;28;20188;-67
2022/08/18 09:47:06;;;;;;;11.98;6.95;;;31.30;1.00;;;;;;8367460;28;20188;-64
2022/08/18 09:51:17;;;;;;;7.72;6.78;;;31.40;1.00;;;;;;8356192;28;20184;-65
2022/08/18 09:55:18;;;;;;;9.02;6.85;;;31.40;1.00;;;;;;8353725;28;20189;-68
2022/08/18 09:59:31;;;;;;;7.75;6.60;;;31.50;1.00;;;;;;8368126;28;20296;-66
2022/08/18 10:03:32;;;;;;;8.38;6.45;;;31.70;1.00;;;;;;8352564;28;20253;-66
2022/08/18 10:07:36;;;;;;;7.63;6.60;;;31.90;1.00;;;;;;8352633;28;20193;-65
2022/08/18 10:11:48;;;;;;;7.35;6.70;;;32.00;1.00;;;;;;8366650;28;20206;-65
2022/08/18 10:16:17;;;;;;;7.72;7.00;;;32.10;1.00;;;;;;8353217;28;20236;-66
2022/08/18 10:20:33;;;;;;;8.18;6.65;;;32.10;1.00;;;;;;8386852;28;20185;-66
2022/08/18 10:24:55;;;;;;;6.90;6.07;;;32.10;1.00;;;;;;8348789;28;20229;-64
2022/08/18 10:28:59;;;;;;;8.43;5.90;;;32.30;1.00;;;;;;8367940;28;20181;-67
2022/08/18 10:33:02;;;;;;;9.52;6.00;;;32.40;1.00;;;;;;8352357;28;20206;-66
2022/08/18 10:37:11;;;;;;;8.55;5.85;;;32.50;1.00;;;;;;8351056;28;20201;-64
2022/08/18 10:41:30;;;;;;;6.28;5.60;;;32.40;1.00;;;;;;8344131;28;20183;-64
2022/08/18 10:45:35;;;;;;;5.82;4.93;;;32.60;1.00;;;;;;8350187;28;20190;-66
2022/08/18 10:49:37;;;;;;;7.10;4.95;;;32.60;1.00;;;;;;8346426;28;20518;-67
2022/08/18 10:53:54;;;;;;;6.07;5.47;;;32.70;1.00;;;;;;8384196;28;20215;-66
2022/08/18 10:58:19;;;;;;;5.38;4.80;;;32.70;1.00;;;;;;8352830;28;20202;-65
2022/08/18 11:02:40;;;;;;;5.70;4.82;;;32.70;1.00;;;;;;8349996;28;20182;-64
2022/08/18 11:06:46;;;;;;;6.25;4.93;;;32.80;1.00;;;;;;8351839;28;20173;-68
2022/08/18 11:10:49;;;;;;;8.10;5.15;;;32.90;1.00;;;;;;8350754;28;20206;-68
2022/08/18 11:15:05;;;;;;;6.95;5.43;;;32.90;1.00;;;;;;8350675;28;20194;-67
2022/08/18 11:19:18;;;;;;;7.82;5.10;;;32.90;1.00;;;;;;8352895;28;20209;-66
2022/08/18 11:23:18;;;;;;;4.80;4.40;;;32.90;1.00;;;;;;8351953;28;20259;-67
2022/08/18 11:27:23;;;;;;;5.82;4.97;;;33.00;1.00;;;;;;8352147;28;20190;-66
2022/08/18 11:31:24;;;;;;;6.05;4.72;;;33.20;1.00;;;;;;8352541;28;20265;-65
2022/08/18 11:35:34;;;;;;;8.45;4.90;;;33.30;1.00;;;;;;8350676;28;20193;-66
2022/08/18 11:39:46;;;;;;;6.05;4.72;;;33.30;1.00;;;;;;8349533;28;20289;-66
2022/08/18 11:43:56;;;;;;;5.03;4.05;;;33.20;1.00;;;;;;8345405;28;20178;-67
2022/08/18 11:48:27;;;;;;;6.57;4.55;;;33.30;1.00;;;;;;8350165;28;20212;-66
2022/08/18 11:52:29;;;;;;;5.03;4.40;;;33.40;1.00;;;;;;8349933;28;20185;-64
2022/08/18 11:56:33;;;;;;;5.47;4.60;;;33.50;1.00;;;;;;8349320;28;20208;-65
2022/08/18 12:00:39;;;;;;;7.18;4.53;;;33.50;1.00;;;;;;8348761;28;20182;-66
2022/08/18 12:04:47;;;;;;;4.68;4.28;;;33.50;1.00;;;;;;8346476;28;20185;-67
2022/08/18 12:08:56;;;;;;;6.03;4.68;;;33.50;1.00;;;;;;8346652;28;20197;-65
2022/08/18 12:12:58;;;;;;;7.72;5.40;;;33.50;1.00;;;;;;8349967;28;20202;-65
2022/08/18 12:17:00;;;;;;;7.82;5.38;;;33.70;1.00;;;;;;8352703;28;20233;-66
2022/08/18 12:21:04;;;;;;;7.28;5.70;;;33.50;1.00;;;;;;8349204;28;20200;-66
2022/08/18 12:25:13;;;;;;;6.43;5.18;;;33.50;1.00;;;;;;8351353;28;20205;-63
2022/08/18 12:29:16;;;;;;;7.25;5.35;;;33.50;1.00;;;;;;8350813;28;20231;-66
2022/08/18 12:33:17;;;;;;;9.10;4.47;;;33.60;1.00;;;;;;8348436;28;20216;-66
2022/08/18 12:37:21;;;;;;;6.10;5.50;;;33.80;1.00;;;;;;8347846;28;20267;-65
2022/08/18 12:41:23;;;;;;;6.65;5.95;;;33.90;1.00;;;;;;8349820;28;20174;-67
2022/08/18 12:45:25;;;;;;;8.95;5.30;;;33.80;1.00;;;;;;8348709;28;20193;-64
2022/08/18 12:49:26;;;;;;;8.77;5.82;;;33.90;1.00;;;;;;8352714;28;20182;-65
2022/08/18 12:53:27;;;;;;;6.88;5.47;;;33.90;1.00;;;;;;8348731;28;20196;-66
2022/08/18 12:57:28;;;;;;;8.30;5.38;;;33.90;1.00;;;;;;8354185;28;20210;-64
2022/08/18 13:01:30;;;;;;;5.80;5.18;;;33.90;1.00;;;;;;8345012;28;20185;-65
2022/08/18 13:05:31;;;;;;;5.97;4.57;;;33.90;1.00;;;;;;8355447;28;20185;-65
2022/08/18 13:09:33;;;;;;;5.03;4.63;;;34.00;1.00;;;;;;8354985;28;20182;-67
2022/08/18 13:13:35;;;;;;;11.20;4.72;;;34.00;1.00;;;;;;8353027;28;20213;-65
2022/08/18 13:17:37;;;;;;;5.20;4.68;;;33.80;1.00;;;;;;8352214;28;20210;-66
2022/08/18 13:21:38;;;;;;;8.73;5.15;;;33.70;1.00;;;;;;8355079;28;20185;-66
2022/08/18 13:25:45;;;;;;;7.65;4.63;;;33.70;1.00;;;;;;8354100;28;20189;-65
2022/08/18 13:29:47;;;;;;;5.03;4.60;;;33.60;1.00;;;;;;8351796;28;20300;-67
2022/08/18 13:33:49;;;;;;;6.47;4.90;;;33.40;1.00;;;;;;8361595;28;20174;-67
2022/08/18 13:37:50;;;;;;;6.00;4.97;;;33.20;1.00;;;;;;8351794;28;20340;-66
2022/08/18 13:41:52;;;;;;;5.82;4.78;;;32.90;1.00;;;;;;8353185;28;20182;-69
2022/08/18 13:45:56;;;;;;;7.20;5.30;;;32.70;1.00;;;;;;8352510;28;20247;-67
2022/08/18 13:49:58;;;;;;;5.65;5.15;;;32.60;1.00;;;;;;8371308;28;20185;-66
2022/08/18 13:54:00;;;;;;;8.23;6.28;;;32.70;1.00;;;;;;8350634;28;20178;-65
2022/08/18 13:58:01;;;;;;;6.63;5.90;;;32.80;1.00;;;;;;8354458;28;20236;-67
2022/08/18 14:02:06;;;;;;;8.40;5.90;;;32.90;1.00;;;;;;8353280;28;20185;-68
2022/08/18 14:06:07;;;;;;;5.78;5.18;;;33.10;1.00;;;;;;8352453;28;20177;-65
2022/08/18 14:10:09;;;;;;;6.90;5.53;;;33.20;1.00;;;;;;8351991;28;20247;-66
2022/08/18 14:14:10;;;;;;;5.95;5.38;;;33.20;1.00;;;;;;8350527;28;20210;-66
2022/08/18 14:18:11;;;;;;;6.72;4.80;;;33.10;1.00;;;;;;8349827;28;20206;-65
2022/08/18 14:26:47;;;;;;;9.43;5.35;;;33.20;1.00;;;;;;8352653;28;20258;-65
2022/08/18 14:30:52;;;;;;;7.53;5.97;;;33.40;1.00;;;;;;8385162;28;20194;-66
2022/08/18 14:34:52;;;;;;;5.88;5.38;;;33.80;1.00;;;;;;8367812;28;20224;-67
2022/08/18 14:38:53;;;;;;;6.68;5.47;;;33.80;1.00;;;;;;8349787;28;20197;-65
2022/08/18 14:42:54;;;;;;;7.30;5.93;;;33.90;1.00;;;;;;8354577;28;20256;-66
2022/08/18 14:46:56;;;;;;;7.13;6.43;;;34.00;1.00;;;;;;8354220;28;20272;-64
2022/08/18 14:51:00;;;;;;;6.55;5.95;;;34.10;1.00;;;;;;8353288;28;20235;-66
2022/08/18 14:55:01;;;;;;;9.93;6.10;;;34.10;1.00;;;;;;8350259;28;20182;-65
2022/08/18 14:59:06;;;;;;;6.55;5.78;;;34.10;1.00;;;;;;8351432;28;20213;-65
2022/08/18 15:03:07;;;;;;;6.82;5.85;;;33.80;1.00;;;;;;8349608;28;20297;-64
2022/08/18 15:07:07;;;;;;;8.00;5.78;;;33.70;1.00;;;;;;8350760;28;20198;-66
2022/08/18 15:11:10;;;;;;;8.30;5.65;;;33.60;1.00;;;;;;8355854;28;20201;-67
2022/08/18 15:15:12;;;;;;;7.38;5.78;;;33.30;1.00;;;;;;8349331;28;20205;-64
2022/08/18 15:19:13;;;;;;;8.48;5.20;;;33.10;1.00;;;;;;8351206;28;20219;-66
2022/08/18 15:27:39;;;;;;;8.60;5.32;;;32.60;1.00;;;;;;8354181;28;20243;-67
2022/08/18 15:31:40;;;;;;;6.03;5.53;;;32.60;1.00;;;;;;8357986;28;20272;-66
2022/08/18 15:35:42;;;;;;;6.75;5.63;;;32.60;1.00;;;;;;8347580;28;20240;-66
2022/08/18 15:39:43;;;;;;;6.47;5.10;;;32.50;1.00;;;;;;8350470;28;20214;-66
2022/08/18 15:43:44;;;;;;;8.02;5.38;;;32.50;1.00;;;;;;8348558;28;20182;-65
2022/08/18 15:47:46;;;;;;;7.10;6.15;;;32.60;1.00;;;;;;8348620;28;20193;-66
2022/08/18 15:51:47;;;;;;;6.22;5.43;;;32.70;1.00;;;;;;8363244;28;20186;-66
2022/08/18 15:55:49;;;;;;;8.63;6.18;;;33.00;1.00;;;;;;8350731;28;20614;-66
2022/08/18 15:59:50;;;;;;;7.15;5.95;;;33.20;1.00;;;;;;8364840;28;21202;-66
2022/08/18 16:03:54;;;;;;;7.68;6.32;;;33.30;1.00;;;;;;8347574;28;20217;-64
2022/08/18 16:07:56;;;;;;;8.88;6.30;;;33.30;1.00;;;;;;8350041;28;20181;-66
2022/08/18 16:11:57;;;;;;;11.15;6.90;;;33.20;1.00;;;;;;8351591;28;20212;-66
2022/08/18 16:15:59;;;;;;;10.18;7.63;;;32.90;1.00;;;;;;8363097;28;20198;-65
2022/08/18 16:20:00;;;;;;;9.43;7.30;;;32.70;1.00;;;;;;8347718;28;20202;-66
2022/08/18 16:24:01;;;;;;;7.72;6.90;;;32.30;1.00;;;;;;8349315;28;20169;-65
2022/08/18 16:28:03;;;;;;;10.65;7.85;;;32.00;1.00;;;;;;8349272;28;20192;-66
2022/08/18 16:32:04;;;;;;;15.27;10.20;;;31.80;1.00;;;;;;8380025;28;20190;-67
2022/08/18 16:36:08;;;;;;;10.27;8.32;;;31.60;1.00;;;;;;8343897;28;20205;-67
2022/08/18 16:40:10;;;;;;;22.85;14.27;;;31.40;1.00;;;;;;8344806;28;20206;-67
2022/08/18 16:44:11;;;;;;;23.27;13.93;;;31.20;1.00;;;;;;8354186;28;20173;-68
2022/08/18 16:48:12;;;;;;;21.30;12.43;;;31.00;1.00;;;;;;8344435;28;20641;-67
2022/08/18 16:52:15;;;;;;;11.50;8.32;;;30.90;1.00;;;;;;8348437;28;20200;-65
2022/08/18 16:56:21;;;;;;;9.30;8.30;;;30.90;1.00;;;;;;8349886;28;20190;-67
2022/08/18 17:04:45;;;;;;;9.50;8.38;;;30.80;1.00;;;;;;8345850;28;20331;-66
2022/08/18 17:08:49;;;;;;;9.20;8.30;;;30.80;1.00;;;;;;8355159;28;20178;-66
2022/08/18 17:12:50;;;;;;;11.18;8.50;;;30.80;1.00;;;;;;8350247;28;20213;-67
2022/08/18 17:16:53;;;;;;;9.68;8.65;;;30.80;1.00;;;;;;8347126;28;20214;-67
2022/08/18 17:20:54;;;;;;;9.43;8.52;;;30.70;1.00;;;;;;8349769;28;20307;-66
2022/08/18 17:25:00;;;;;;;12.60;9.25;;;30.50;1.00;;;;;;8348147;28;20189;-67
2022/08/18 17:29:23;;;;;;;11.32;9.65;;;30.40;1.00;;;;;;8348445;28;20197;-67
2022/08/18 17:33:30;;;;;;;9.90;9.10;;;30.20;1.00;;;;;;8357480;28;20205;-67
2022/08/18 17:37:32;;;;;;;11.60;10.48;;;30.00;1.00;;;;;;8379671;28;20201;-66
2022/08/18 17:42:24;;;;;;;13.05;9.63;;;29.80;1.00;;;;;;8342148;28;20178;-67
2022/08/18 17:46:07;;;;;;;12.05;9.93;;;29.70;1.00;;;;;;8344120;28;20196;-66
2022/08/18 17:55:03;;;;;;;31.52;28.83;;;29.30;1.00;;;;;;8356041;28;20359;-65
2022/08/18 17:59:36;;;;;;;21.52;19.60;;;29.20;1.00;;;;;;8351277;28;20307;-67
2022/08/18 18:03:41;;;;;;;12.48;11.23;;;29.00;1.00;;;;;;8349605;28;20185;-67
2022/08/18 18:07:51;;;;;;;12.10;10.90;;;28.90;1.00;;;;;;8351926;28;20253;-67
2022/08/18 18:11:52;;;;;;;14.27;11.95;;;28.70;1.00;;;;;;8349027;28;20292;-67
2022/08/18 18:16:01;;;;;;;12.75;11.65;;;28.60;1.00;;;;;;8349896;28;20202;-67
2022/08/18 18:20:40;;;;;;;12.60;11.30;;;28.50;1.00;;;;;;8368252;28;20221;-67
2022/08/18 18:24:58;;;;;;;14.15;11.18;;;28.50;1.00;;;;;;8354171;28;20220;-68
2022/08/18 18:29:19;;;;;;;12.43;11.32;;;28.40;1.00;;;;;;8371934;28;20178;-69
2022/08/18 18:33:21;;;;;;;13.38;11.98;;;28.40;1.00;;;;;;8357844;28;20194;-68
2022/08/18 18:37:31;;;;;;;13.10;11.73;;;28.30;1.00;;;;;;8361893;28;20206;-67
2022/08/18 18:41:32;;;;;;;13.32;11.93;;;28.20;1.00;;;;;;8356796;28;20257;-66
2022/08/18 18:45:33;;;;;;;13.52;12.18;;;28.20;1.00;;;;;;8361450;28;20185;-68
2022/08/18 18:50:03;;;;;;;11.57;10.52;;;28.10;1.00;;;;;;8356579;28;20260;-67
2022/08/18 18:54:07;;;;;;;10.90;9.85;;;28.00;1.00;;;;;;8357235;28;20193;-67
2022/08/18 18:58:49;;;;;;;13.32;11.02;;;27.80;1.00;;;;;;8353598;28;20213;-67
2022/08/18 19:03:24;;;;;;;10.77;9.80;;;27.70;1.00;;;;;;8360555;28;20190;-67
2022/08/18 19:07:32;;;;;;;11.50;10.48;;;27.50;1.00;;;;;;8354352;28;20181;-68
2022/08/18 19:12:10;;;;;;;10.40;9.38;;;27.50;1.00;;;;;;8359703;28;20202;-66
2022/08/18 19:16:21;;;;;;;10.30;8.25;;;27.40;1.00;;;;;;8350521;28;20284;-68
2022/08/18 19:20:53;;;;;;;10.93;8.95;;;27.30;1.00;;;;;;8355906;28;20190;-66
2022/08/18 19:24:57;;;;;;;10.63;9.02;;;27.20;1.00;;;;;;8355453;28;20265;-67
2022/08/18 19:29:10;;;;;;;12.13;9.70;;;27.10;1.00;;;;;;8368451;28;20190;-67
2022/08/18 19:33:20;;;;;;;10.63;8.90;;;27.10;1.00;;;;;;8354714;28;20259;-67
2022/08/18 19:37:40;;;;;;;9.37;8.47;;;27.10;1.00;;;;;;8356580;28;20213;-67
2022/08/18 19:41:47;;;;;;;9.83;8.27;;;27.00;1.00;;;;;;8356069;28;20174;-67
2022/08/18 19:45:56;;;;;;;9.40;8.50;;;26.90;1.00;;;;;;8359606;28;20174;-67
2022/08/18 19:50:32;;;;;;;10.60;8.30;;;27.00;1.00;;;;;;8353765;28;20174;-68
2022/08/18 19:55:17;;;;;;;11.03;8.27;;;26.80;1.00;;;;;;8349410;28;20182;-67
2022/08/18 19:59:27;;;;;;;8.67;7.87;;;26.80;1.00;;;;;;8355617;28;20210;-67
2022/08/18 20:03:52;;;;;;;10.00;8.63;;;26.60;1.00;;;;;;8366246;28;20190;-68
2022/08/18 20:08:30;;;;;;;10.07;7.93;;;26.50;1.00;;;;;;8362468;28;20245;-66
2022/08/18 20:12:55;;;;;;;11.17;7.70;;;26.40;1.00;;;;;;8361057;28;20205;-68
2022/08/18 20:17:16;;;;;;;12.10;8.80;;;26.40;1.00;;;;;;8337991;28;20300;-70
2022/08/18 20:21:18;;;;;;;8.93;8.00;;;26.30;1.00;;;;;;8346191;28;20181;-67
2022/08/18 20:25:40;;;;;;;9.57;8.40;;;26.20;1.00;;;;;;8352311;28;20184;-67
2022/08/18 20:29:45;;;;;;;12.10;8.47;;;26.10;1.00;;;;;;8364594;28;20203;-67
2022/08/18 20:34:09;;;;;;;10.13;8.80;;;26.00;1.00;;;;;;8361765;28;20193;-66
2022/08/18 20:38:32;;;;;;;9.60;8.70;;;26.00;1.00;;;;;;8380390;28;20202;-66
2022/08/18 20:42:33;;;;;;;10.10;9.10;;;25.90;1.00;;;;;;8346700;28;20470;-66
2022/08/18 20:46:47;;;;;;;10.63;8.93;;;25.90;1.00;;;;;;8360402;28;20208;-66
2022/08/18 20:50:59;;;;;;;9.40;8.60;;;25.80;5.60;;;;;;8347359;28;20182;-68
2022/08/18 20:55:03;;;;;;;17.47;9.23;;;25.70;16.10;;;;;;8345239;28;20194;-67
2022/08/18 20:59:18;;;;;;;11.37;8.97;;;25.70;22.90;;;;;;8349074;28;20232;-67
2022/08/18 21:03:23;;;;;;;11.37;9.03;;;25.60;32.60;;;;;;8344816;28;20174;-67
2022/08/18 21:07:38;;;;;;;9.63;8.73;;;25.50;42.50;;;;;;8347720;28;20182;-67
2022/08/18 21:11:46;;;;;;;11.80;9.10;;;25.40;54.40;;;;;;8361710;28;20209;-68
2022/08/18 21:15:48;;;;;;;11.60;9.10;;;25.40;74.70;;;;;;8352659;28;20271;-68
2022/08/18 21:19:49;;;;;;;10.00;9.00;;;25.30;81.70;;;;;;8348975;28;20214;-66
2022/08/18 21:23:54;;;;;;;12.40;9.53;;;25.30;88.50;;;;;;8353074;28;20177;-66
2022/08/18 21:27:55;;;;;;;10.40;8.37;;;25.40;95.40;;;;;;8354374;28;20274;-67
2022/08/18 21:32:10;;;;;;;13.87;9.17;;;25.30;99.90;;;;;;8351419;28;20502;-67
2022/08/18 21:36:13;;;;;;;9.87;8.87;;;25.20;99.90;;;;;;8353996;28;20173;-67
2022/08/18 21:40:13;;;;;;;10.63;8.80;;;25.20;99.90;;;;;;8357345;28;20200;-67
2022/08/18 21:44:27;;;;;;;11.97;10.53;;;25.20;99.90;;;;;;8351328;28;20196;-66
2022/08/18 21:48:29;;;;;;;11.03;9.93;;;25.40;99.90;;;;;;8355245;28;20216;-67
2022/08/18 21:52:30;;;;;;;12.23;9.20;;;25.40;99.90;;;;;;8354350;28;20277;-67
2022/08/18 21:56:34;;;;;;;11.23;10.00;;;25.40;99.90;;;;;;8354401;28;20185;-68
2022/08/18 22:00:38;;;;;;;10.20;9.10;;;25.40;99.90;;;;;;8353918;28;20181;-68